Langworthy, Iowa
Current Conditions -  °F | °C
As of 8:15 AM on Sunday 23 Nov 2014 (Local Time) from KMXO Reporting Station
Haze Haze  
Wind Chill: 43°   Ceiling: 600
Heat Index: 48°   Visibility: 2.5mi
Dew Point: 48°   Wind: 12mph
Humidity: 100%   Direction: 150°SSE
Pressure: 29.59"   Gusts: 18mph
Location:  42.19°N, 91.22°W
Report Text: KMXO 231415Z AUTO 15010G16KT 2 1/2SM BR BKN006 BKN015 OVC020 09/09 A2959 RMK AO2
Loading
Personal Weather Stations






























Interactive Weather Map New forecast layout! Learn more

10-Day Weather Forecast

Advertisements
Track Severe Weather on mobile